Roy Baker — WDC2698 — position and weather

sailwx.info

Track history (hours):
 
Tides and Currents Weather Stations Pressure Air Temp Water Temp Dewpoint Dewpoint Depression Visibility Wind Speed Wind Dir Waves Ship Positions

Roy Baker

Owner: Kirby Inland Marine LP, Houston, TX. More information available from US FCC via Universal Licensing System and Coast Guard Vessel Documentation Center.

Last reported at 2015-Apr-14 08:25 UTC. Time now 2015-Apr-28 10:22 UTC.
Position N 29°56' W 089°59'.
Warning: this ship's position is 14 days out of date.

Length 24 m; draft 2.3 m.

Type: Towing. MMSI: 366996540.

Date/timePositionNaut miles runAvg speedWind from/ knotsBaromVisibWave heightAir tempDewpointWater temp
2015-Apr-14 08:25N 29°56' W 089°59'0 0.0
2015-Apr-14 07:09N 29°56' W 089°59'0 0.0
2015-Apr-14 05:27N 29°56' W 089°59'0 0.0
2015-Apr-14 04:21N 29°56' W 089°59'0 0.0
2015-Apr-14 03:05N 29°56' W 089°59'38 1.7
2015-Apr-13 05:21N 29°35' W 090°35'4 4.9
2015-Apr-13 04:33N 29°36' W 090°40'3 3.2
2015-Apr-13 03:33N 29°35' W 090°43'  
2015-Apr-04 23:04N 29°32' W 090°50'4 7.2
2015-Apr-04 22:33N 29°32' W 090°46'5 5.5
2015-Apr-04 21:34N 29°37' W 090°42'6 5.7
2015-Apr-04 20:26N 29°35' W 090°35'30 4.3
2015-Apr-04 13:28N 29°48' W 090°04'6 5.2
2015-Apr-04 12:19N 29°53' W 090°00'3 2.3
2015-Apr-04 11:13N 29°55' W 089°58'0 0.0
2015-Apr-04 10:32N 29°55' W 089°58'1 0.5
2015-Apr-04 09:25N 29°55' W 089°58'  
Track history (hours):
 
Tides and Currents Weather Stations Pressure Air Temp Water Temp Dewpoint Dewpoint Depression Visibility Wind Speed Wind Dir Waves Ship Positions

Roy Baker

Owner: Kirby Inland Marine LP, Houston, TX. More information available from US FCC via Universal Licensing System and Coast Guard Vessel Documentation Center.

Last reported at 2015-Apr-14 08:25 UTC. Time now 2015-Apr-28 10:22 UTC.
Position N 29°56' W 089°59'.
Warning: this ship's position is 14 days out of date.

Length 24 m; draft 2.3 m.

Type: Towing. MMSI: 366996540.

Date/timePositionNaut miles runAvg speedWind from/ knotsBaromVisibWave heightAir tempDewpointWater temp
2015-Apr-14 08:25N 29°56' W 089°59'0 0.0
2015-Apr-14 07:09N 29°56' W 089°59'0 0.0
2015-Apr-14 05:27N 29°56' W 089°59'0 0.0
2015-Apr-14 04:21N 29°56' W 089°59'0 0.0
2015-Apr-14 03:05N 29°56' W 089°59'38 1.7
2015-Apr-13 05:21N 29°35' W 090°35'4 4.9
2015-Apr-13 04:33N 29°36' W 090°40'3 3.2
2015-Apr-13 03:33N 29°35' W 090°43'  
2015-Apr-04 23:04N 29°32' W 090°50'4 7.2
2015-Apr-04 22:33N 29°32' W 090°46'5 5.5
2015-Apr-04 21:34N 29°37' W 090°42'6 5.7
2015-Apr-04 20:26N 29°35' W 090°35'30 4.3
2015-Apr-04 13:28N 29°48' W 090°04'6 5.2
2015-Apr-04 12:19N 29°53' W 090°00'3 2.3
2015-Apr-04 11:13N 29°55' W 089°58'0 0.0
2015-Apr-04 10:32N 29°55' W 089°58'1 0.5
2015-Apr-04 09:25N 29°55' W 089°58'  

Dump ship's entire track history